createdAt,value
2018-02-05T00:00:31.277Z,70.10
2018-02-05T00:01:31.231Z,61.80
2018-02-05T00:02:31.197Z,60.60
2018-02-05T00:03:31.152Z,56.50
2018-02-05T00:04:31.111Z,60.30
2018-02-05T00:05:31.058Z,77.80
2018-02-05T00:06:31.015Z,65.80
2018-02-05T00:07:30.974Z,63.40
2018-02-05T00:08:30.932Z,69.30
2018-02-05T00:09:30.892Z,73.40
2018-02-05T00:10:30.841Z,73.00
2018-02-05T00:11:30.804Z,72.20
2018-02-05T00:12:30.762Z,71.60
2018-02-05T00:13:30.708Z,75.50
2018-02-05T00:14:30.667Z,69.80
2018-02-05T00:15:30.621Z,73.70
2018-02-05T00:16:30.578Z,72.30
2018-02-05T00:17:30.535Z,70.80
2018-02-05T00:18:30.491Z,76.60
2018-02-05T00:19:30.449Z,78.90
2018-02-05T00:20:30.416Z,86.00
2018-02-05T00:21:30.361Z,75.10
2018-02-05T00:22:30.327Z,73.00
2018-02-05T00:23:30.279Z,73.90
2018-02-05T00:24:30.239Z,69.80
2018-02-05T00:25:30.195Z,69.70
2018-02-05T00:26:30.150Z,70.30
2018-02-05T00:27:30.104Z,65.70
2018-02-05T00:28:30.068Z,65.70
2018-02-05T00:29:30.012Z,61.20
2018-02-05T00:30:29.973Z,67.80
2018-02-05T00:31:29.926Z,65.40
2018-02-05T00:32:29.884Z,66.90
2018-02-05T00:33:29.859Z,66.20
2018-02-05T00:34:29.803Z,71.20
2018-02-05T00:35:29.757Z,73.00
2018-02-05T00:36:29.715Z,66.10
2018-02-05T00:37:29.668Z,70.90
2018-02-05T00:38:29.629Z,69.70
2018-02-05T00:39:29.580Z,72.70
2018-02-05T00:40:29.540Z,65.60
2018-02-05T00:41:29.557Z,70.10
2018-02-05T00:42:29.448Z,71.00
2018-02-05T00:43:29.409Z,67.70
2018-02-05T00:44:29.396Z,65.90
2018-02-05T00:45:29.319Z,63.30
2018-02-05T00:46:29.282Z,66.90
2018-02-05T00:47:29.233Z,65.10
2018-02-05T00:48:29.194Z,71.60
2018-02-05T00:49:29.146Z,70.90
2018-02-05T00:50:29.105Z,68.70
2018-02-05T00:51:29.063Z,76.70
2018-02-05T00:52:29.020Z,65.40
2018-02-05T00:53:28.973Z,64.10
2018-02-05T00:54:28.933Z,67.50
2018-02-05T00:55:28.886Z,64.10
2018-02-05T00:56:28.853Z,63.00
2018-02-05T00:57:28.813Z,58.40
2018-02-05T00:58:28.755Z,63.40
2018-02-05T00:59:28.719Z,62.40
2018-02-05T01:00:28.670Z,53.00
2018-02-05T01:01:28.635Z,52.90
2018-02-05T01:02:28.585Z,54.90
2018-02-05T01:03:28.541Z,59.10
2018-02-05T01:04:28.498Z,56.40
2018-02-05T01:05:28.453Z,60.60
2018-02-05T01:06:28.409Z,59.40
2018-02-05T01:07:28.367Z,61.00
2018-02-05T01:08:28.345Z,60.00
2018-02-05T01:09:28.364Z,59.30
2018-02-05T01:10:28.261Z,58.60
2018-02-05T01:11:28.197Z,61.90
2018-02-05T01:12:28.149Z,60.90
2018-02-05T01:13:28.103Z,51.60
2018-02-05T01:14:28.062Z,54.00
2018-02-05T01:15:28.022Z,52.10
2018-02-05T01:16:27.975Z,54.40
2018-02-05T01:17:27.949Z,45.80
2018-02-05T01:18:27.903Z,55.40
2018-02-05T01:19:27.858Z,51.20
2018-02-05T01:20:27.807Z,53.90
2018-02-05T01:21:27.776Z,52.40
2018-02-05T01:22:27.719Z,57.70
2018-02-05T01:23:27.680Z,49.10
2018-02-05T01:24:27.646Z,50.40
2018-02-05T01:25:27.587Z,52.00
2018-02-05T01:26:27.549Z,54.80
2018-02-05T01:27:27.499Z,55.70
2018-02-05T01:28:27.458Z,58.50
2018-02-05T01:29:27.425Z,64.00
2018-02-05T01:30:27.376Z,50.20
2018-02-05T01:31:27.325Z,55.60
2018-02-05T01:32:27.281Z,51.10
2018-02-05T01:33:27.237Z,55.10
2018-02-05T01:34:27.195Z,49.20
2018-02-05T01:35:27.152Z,50.60
2018-02-05T01:36:27.110Z,45.70
2018-02-05T01:37:27.070Z,56.50
2018-02-05T01:38:27.024Z,51.70
2018-02-05T01:39:26.978Z,53.50
2018-02-05T01:40:26.936Z,56.10
2018-02-05T01:41:26.889Z,51.20
2018-02-05T01:42:26.847Z,51.70
2018-02-05T01:43:26.804Z,48.20
2018-02-05T01:44:26.770Z,55.60
2018-02-05T01:45:26.719Z,52.40
2018-02-05T01:46:26.674Z,52.80
2018-02-05T01:47:26.646Z,56.50
2018-02-05T01:48:26.585Z,53.80
2018-02-05T01:49:26.546Z,51.70
2018-02-05T01:50:26.499Z,53.40
2018-02-05T01:51:26.457Z,57.80
2018-02-05T01:52:26.414Z,51.10
2018-02-05T01:53:26.367Z,55.30
2018-02-05T01:54:26.326Z,54.30
2018-02-05T01:55:26.282Z,55.70
2018-02-05T01:56:26.240Z,54.80
2018-02-05T01:57:26.198Z,50.40
2018-02-05T01:58:26.151Z,49.90
2018-02-05T01:59:26.112Z,52.60
2018-02-05T02:00:26.080Z,48.60
2018-02-05T02:01:26.022Z,51.30
2018-02-05T02:02:25.989Z,30.30
2018-02-05T02:03:25.939Z,46.10
2018-02-05T02:04:25.898Z,46.10
2018-02-05T02:05:25.851Z,42.90
2018-02-05T02:06:25.808Z,43.20
2018-02-05T02:07:25.771Z,48.30
2018-02-05T02:08:25.726Z,49.80
2018-02-05T02:09:25.675Z,37.30
2018-02-05T02:10:25.633Z,46.60
2018-02-05T02:11:25.588Z,50.30
2018-02-05T02:12:25.544Z,38.10
2018-02-05T02:13:25.508Z,40.90
2018-02-05T02:14:25.456Z,42.20
2018-02-05T02:15:25.414Z,32.80
2018-02-05T02:16:25.371Z,49.30
2018-02-05T02:17:25.326Z,28.20
2018-02-05T02:18:25.286Z,44.20
2018-02-05T02:19:25.242Z,44.90
2018-02-05T02:20:25.198Z,50.60
2018-02-05T02:21:25.157Z,51.30
2018-02-05T02:22:25.108Z,54.40
2018-02-05T02:23:25.075Z,55.30
2018-02-05T02:24:25.038Z,52.90
2018-02-05T02:25:24.984Z,43.70
2018-02-05T02:26:24.934Z,49.30
2018-02-05T02:27:24.890Z,46.90
2018-02-05T02:28:24.848Z,44.70
2018-02-05T02:29:24.807Z,54.20
2018-02-05T02:30:24.763Z,54.00
2018-02-05T02:31:24.723Z,58.10
2018-02-05T02:32:24.675Z,48.20
2018-02-05T02:33:24.635Z,43.30
2018-02-05T02:34:24.592Z,49.60
2018-02-05T02:35:24.544Z,53.20
2018-02-05T02:36:24.496Z,51.40
2018-02-05T02:37:24.458Z,52.90
2018-02-05T02:38:24.419Z,47.40
2018-02-05T02:39:24.375Z,49.80
2018-02-05T02:40:24.333Z,49.90
2018-02-05T02:41:24.292Z,50.00
2018-02-05T02:42:24.241Z,45.10
2018-02-05T02:43:24.203Z,48.80
2018-02-05T02:44:24.155Z,39.40
2018-02-05T02:45:24.110Z,43.00
2018-02-05T02:46:24.060Z,36.60
2018-02-05T02:47:24.020Z,29.80
2018-02-05T02:48:23.979Z,40.80
2018-02-05T02:49:23.935Z,34.80
2018-02-05T02:50:23.895Z,36.50
2018-02-05T02:51:23.846Z,31.40
2018-02-05T02:52:23.810Z,26.50
2018-02-05T02:53:23.765Z,27.10
2018-02-05T02:54:23.720Z,37.50
2018-02-05T02:55:23.676Z,44.90
2018-02-05T02:56:23.630Z,45.50
2018-02-05T02:57:23.600Z,35.60
2018-02-05T02:58:23.547Z,41.70
2018-02-05T02:59:23.504Z,35.20
2018-02-05T03:00:23.456Z,32.60
2018-02-05T03:01:23.441Z,32.60
2018-02-05T03:02:23.370Z,36.60
2018-02-05T03:03:23.326Z,26.50
2018-02-05T03:04:23.283Z,29.80
2018-02-05T03:05:23.240Z,29.20
2018-02-05T03:06:23.195Z,24.40
2018-02-05T03:07:23.151Z,24.00
2018-02-05T03:08:23.109Z,28.60
2018-02-05T03:09:23.070Z,31.80
2018-02-05T03:10:23.040Z,41.70
2018-02-05T03:11:22.978Z,32.40
2018-02-05T03:12:22.937Z,41.30
2018-02-05T03:13:22.892Z,40.90
2018-02-05T03:14:22.850Z,35.80
2018-02-05T03:15:22.804Z,31.70
2018-02-05T03:16:22.762Z,36.40
2018-02-05T03:17:22.732Z,38.90
2018-02-05T03:18:22.671Z,34.50
2018-02-05T03:19:22.632Z,31.60
2018-02-05T03:20:22.593Z,35.50
2018-02-05T03:21:22.544Z,22.80
2018-02-05T03:22:22.502Z,26.20
2018-02-05T03:23:22.454Z,27.60
2018-02-05T03:24:22.411Z,28.20
2018-02-05T03:25:22.367Z,35.90
2018-02-05T03:26:22.326Z,31.40
2018-02-05T03:27:22.279Z,30.60
2018-02-05T03:28:22.238Z,27.70
2018-02-05T03:29:22.196Z,30.90
2018-02-05T03:30:22.149Z,34.80
2018-02-05T03:31:22.104Z,34.90
2018-02-05T03:32:22.106Z,29.70
2018-02-05T03:33:22.019Z,34.10
2018-02-05T03:34:21.975Z,33.30
2018-02-05T03:35:21.931Z,35.60
2018-02-05T03:36:21.889Z,35.80
2018-02-05T03:37:21.856Z,34.00
2018-02-05T03:38:21.802Z,36.20
2018-02-05T03:39:21.778Z,36.60
2018-02-05T03:40:21.749Z,22.70
2018-02-05T03:41:21.682Z,24.30
2018-02-05T03:42:21.628Z,31.90
2018-02-05T03:43:21.596Z,22.90
2018-02-05T03:44:21.538Z,33.10
2018-02-05T03:45:21.503Z,34.40
2018-02-05T03:46:21.462Z,26.90
2018-02-05T03:47:21.416Z,39.30
2018-02-05T03:48:21.368Z,32.80
2018-02-05T03:49:21.324Z,24.30
2018-02-05T03:50:21.284Z,32.10
2018-02-05T03:51:21.233Z,33.80
2018-02-05T03:52:21.204Z,29.60
2018-02-05T03:53:21.143Z,34.00
2018-02-05T03:54:21.117Z,19.40
2018-02-05T03:55:21.054Z,29.80
2018-02-05T03:56:21.015Z,21.90
2018-02-05T03:57:20.965Z,28.60
2018-02-05T03:58:20.926Z,22.60
2018-02-05T03:59:20.888Z,21.40
2018-02-05T04:00:20.836Z,23.20
2018-02-05T04:01:20.791Z,23.90
2018-02-05T04:02:20.748Z,30.60
2018-02-05T04:03:20.704Z,27.30
2018-02-05T04:04:20.659Z,31.40
2018-02-05T04:05:20.616Z,28.20
2018-02-05T04:06:20.570Z,33.10
2018-02-05T04:07:20.532Z,33.40
2018-02-05T04:08:20.483Z,32.70
2018-02-05T04:09:20.440Z,32.40
2018-02-05T04:10:20.395Z,31.50
2018-02-05T04:11:20.356Z,27.20
2018-02-05T04:12:20.313Z,25.50
2018-02-05T04:13:20.263Z,32.60
2018-02-05T04:14:20.219Z,32.00
2018-02-05T04:15:20.189Z,32.20
2018-02-05T04:16:20.135Z,34.70
2018-02-05T04:17:20.100Z,30.70
2018-02-05T04:18:20.051Z,25.80
2018-02-05T04:19:20.005Z,30.50
2018-02-05T04:20:19.955Z,17.10
2018-02-05T04:21:19.916Z,28.60
2018-02-05T04:22:19.869Z,23.30
2018-02-05T04:23:19.827Z,27.00
2018-02-05T04:24:19.781Z,30.00
2018-02-05T04:25:19.737Z,28.80
2018-02-05T04:26:19.692Z,24.50
2018-02-05T04:27:19.650Z,29.30
2018-02-05T04:28:19.606Z,30.70
2018-02-05T04:29:19.560Z,27.60
2018-02-05T04:30:19.517Z,29.30
2018-02-05T04:31:19.472Z,31.50
2018-02-05T04:32:19.435Z,31.40
2018-02-05T04:33:19.384Z,33.10
2018-02-05T04:34:19.341Z,38.10
2018-02-05T04:35:19.297Z,34.80
2018-02-05T04:36:19.252Z,34.90
2018-02-05T04:37:19.213Z,31.10
2018-02-05T04:38:19.179Z,30.70
2018-02-05T04:39:19.130Z,31.40
2018-02-05T04:40:19.089Z,34.40
2018-02-05T04:41:19.035Z,26.40
2018-02-05T04:42:19.001Z,27.80
2018-02-05T04:43:18.949Z,34.90
2018-02-05T04:44:18.914Z,29.20
2018-02-05T04:45:18.861Z,32.10
2018-02-05T04:46:18.818Z,29.00
2018-02-05T04:47:18.770Z,33.20
2018-02-05T04:48:18.735Z,30.80
2018-02-05T04:49:18.684Z,30.20
2018-02-05T04:50:18.637Z,29.50
2018-02-05T04:51:18.597Z,30.40
2018-02-05T04:52:18.557Z,26.70
2018-02-05T04:53:18.506Z,29.50
2018-02-05T04:54:18.468Z,29.10
2018-02-05T04:55:18.418Z,33.90
2018-02-05T04:56:18.373Z,31.80
2018-02-05T04:57:18.334Z,27.30
2018-02-05T04:58:18.299Z,30.20
2018-02-05T04:59:18.241Z,30.70
2018-02-05T05:00:18.200Z,30.90
2018-02-05T05:01:18.162Z,22.70
2018-02-05T05:02:18.113Z,30.20
2018-02-05T05:03:18.082Z,29.40
2018-02-05T05:04:18.024Z,29.90
2018-02-05T05:05:17.981Z,28.00
2018-02-05T05:06:17.942Z,25.90
2018-02-05T05:07:17.895Z,35.10
2018-02-05T05:08:17.853Z,19.30
2018-02-05T05:09:17.805Z,28.40
2018-02-05T05:10:17.758Z,22.70
2018-02-05T05:11:17.715Z,27.10
2018-02-05T05:12:17.679Z,30.70
2018-02-05T05:13:17.633Z,28.30
2018-02-05T05:14:17.587Z,31.60
2018-02-05T05:15:17.539Z,29.60
2018-02-05T05:16:17.507Z,33.80
2018-02-05T05:17:17.458Z,27.90
2018-02-05T05:18:17.417Z,31.90
2018-02-05T05:19:17.370Z,29.70
2018-02-05T05:20:17.324Z,28.30
2018-02-05T05:21:17.280Z,30.00
2018-02-05T05:22:17.231Z,28.70
2018-02-05T05:23:17.192Z,34.20
2018-02-05T05:24:17.147Z,33.10
2018-02-05T05:25:17.112Z,33.10
2018-02-05T05:26:17.058Z,30.20
2018-02-05T05:27:17.016Z,33.00
2018-02-05T05:28:16.969Z,31.30
2018-02-05T05:29:16.926Z,28.20
2018-02-05T05:30:16.889Z,28.60
2018-02-05T05:31:16.843Z,27.40
2018-02-05T05:32:16.792Z,28.30
2018-02-05T05:33:16.748Z,27.50
2018-02-05T05:34:16.704Z,30.20
2018-02-05T05:35:16.659Z,29.80
2018-02-05T05:36:16.617Z,30.20
2018-02-05T05:37:16.571Z,27.10
2018-02-05T05:38:16.532Z,26.20
2018-02-05T05:39:16.485Z,28.00
2018-02-05T05:40:16.440Z,26.60
2018-02-05T05:41:16.412Z,26.90
2018-02-05T05:42:16.351Z,29.00
2018-02-05T05:43:16.318Z,25.70
2018-02-05T05:44:16.267Z,26.60
2018-02-05T05:45:16.229Z,19.00
2018-02-05T05:46:16.179Z,20.70
2018-02-05T05:47:16.139Z,24.60
2018-02-05T05:48:16.094Z,20.50
2018-02-05T05:49:16.046Z,26.00
2018-02-05T05:50:16.003Z,30.20
2018-02-05T05:51:15.958Z,29.70
2018-02-05T05:52:15.917Z,26.30
2018-02-05T05:53:15.877Z,30.00
2018-02-05T05:54:15.827Z,26.00
2018-02-05T05:55:15.782Z,23.70
2018-02-05T05:56:15.740Z,16.00
2018-02-05T05:57:15.694Z,23.80
2018-02-05T05:58:15.651Z,24.90
2018-02-05T05:59:15.609Z,26.30
2018-02-05T06:00:15.574Z,23.30
2018-02-05T06:01:15.535Z,23.20
2018-02-05T06:02:15.491Z,23.50
2018-02-05T06:03:15.457Z,29.30
2018-02-05T06:04:15.403Z,21.40
2018-02-05T06:05:15.369Z,21.70
2018-02-05T06:06:15.301Z,19.20
2018-02-05T06:07:15.261Z,16.00
2018-02-05T06:08:15.256Z,16.50
2018-02-05T06:09:15.192Z,21.60
2018-02-05T06:10:15.125Z,29.00
2018-02-05T06:11:15.125Z,22.10
2018-02-05T06:12:15.038Z,19.70
2018-02-05T06:13:14.994Z,18.70
2018-02-05T06:14:14.967Z,22.40
2018-02-05T06:15:14.922Z,23.40
2018-02-05T06:16:14.874Z,21.20
2018-02-05T06:17:14.837Z,22.60
2018-02-05T06:18:14.793Z,22.00
2018-02-05T06:19:14.747Z,21.90
2018-02-05T06:20:14.697Z,21.70
2018-02-05T06:21:14.654Z,23.60
2018-02-05T06:22:14.604Z,19.90
2018-02-05T06:23:14.545Z,24.70
2018-02-05T06:24:14.511Z,20.40
2018-02-05T06:25:14.467Z,21.90
2018-02-05T06:26:14.424Z,20.50
2018-02-05T06:27:14.384Z,21.50
2018-02-05T06:28:14.352Z,16.40
2018-02-05T06:29:14.287Z,19.00
2018-02-05T06:30:14.243Z,20.80
2018-02-05T06:31:14.205Z,22.70
2018-02-05T06:32:14.166Z,22.30
2018-02-05T06:33:14.111Z,18.50
2018-02-05T06:34:14.067Z,19.90
2018-02-05T06:35:14.025Z,20.20
2018-02-05T06:36:13.980Z,18.90
2018-02-05T06:37:13.941Z,18.70
2018-02-05T06:38:13.893Z,20.30
2018-02-05T06:39:13.852Z,22.60
2018-02-05T06:40:13.815Z,17.20
2018-02-05T06:41:13.762Z,17.30
2018-02-05T06:42:13.711Z,18.30
2018-02-05T06:43:13.675Z,18.00
2018-02-05T06:44:13.625Z,20.10
2018-02-05T06:45:13.584Z,17.50
2018-02-05T06:46:13.534Z,20.80
2018-02-05T06:47:13.495Z,19.60
2018-02-05T06:48:13.463Z,17.00
2018-02-05T06:49:13.414Z,20.20
2018-02-05T06:50:13.359Z,18.90
2018-02-05T06:51:13.317Z,17.70
2018-02-05T06:52:13.277Z,14.60
2018-02-05T06:53:13.227Z,13.90
2018-02-05T06:54:13.197Z,17.20
2018-02-05T06:55:13.140Z,17.00
2018-02-05T06:56:13.107Z,17.30
2018-02-05T06:57:13.051Z,21.30
2018-02-05T06:58:13.009Z,22.00
2018-02-05T06:59:12.959Z,18.20
2018-02-05T07:00:12.924Z,18.60
2018-02-05T07:01:12.871Z,16.50
2018-02-05T07:02:12.835Z,18.20
2018-02-05T07:03:12.786Z,16.30
2018-02-05T07:04:12.746Z,18.70
2018-02-05T07:05:12.697Z,18.40
2018-02-05T07:06:12.655Z,18.00
2018-02-05T07:07:12.610Z,18.30
2018-02-05T07:08:12.566Z,16.70
2018-02-05T07:09:12.519Z,16.90
2018-02-05T07:10:12.481Z,16.90
2018-02-05T07:11:12.433Z,16.10
2018-02-05T07:12:12.388Z,17.10
2018-02-05T07:13:12.343Z,21.60
2018-02-05T07:14:12.312Z,18.90
2018-02-05T07:15:12.282Z,16.10
2018-02-05T07:16:12.214Z,13.70
2018-02-05T07:17:12.170Z,16.00
2018-02-05T07:18:12.126Z,14.50
2018-02-05T07:19:12.091Z,17.30
2018-02-05T07:20:12.038Z,15.70
2018-02-05T07:21:12.003Z,16.60
2018-02-05T07:22:11.948Z,15.70
2018-02-05T07:23:11.904Z,13.10
2018-02-05T07:24:11.862Z,10.80
2018-02-05T07:25:11.819Z,12.70
2018-02-05T07:26:11.773Z,14.80
2018-02-05T07:27:11.732Z,12.60
2018-02-05T07:28:11.687Z,16.60
2018-02-05T07:29:11.647Z,15.00
2018-02-05T07:30:11.608Z,13.40
2018-02-05T07:31:11.563Z,21.20
2018-02-05T07:32:11.524Z,17.20
2018-02-05T07:33:11.473Z,12.00
2018-02-05T07:34:11.429Z,10.30
2018-02-05T07:35:11.383Z,12.30
2018-02-05T07:36:11.335Z,13.90
2018-02-05T07:37:11.293Z,12.20
2018-02-05T07:38:11.267Z,10.80
2018-02-05T07:39:11.215Z,11.30
2018-02-05T07:40:11.159Z,15.50
2018-02-05T07:41:11.121Z,16.70
2018-02-05T07:42:11.079Z,18.50
2018-02-05T07:43:11.040Z,15.40
2018-02-05T07:44:10.994Z,16.40
2018-02-05T07:45:10.942Z,13.70
2018-02-05T07:46:10.902Z,14.50
2018-02-05T07:47:10.857Z,17.30
2018-02-05T07:48:10.822Z,12.20
2018-02-05T07:49:10.776Z,13.10
2018-02-05T07:50:10.725Z,17.10
2018-02-05T07:51:10.682Z,12.80
2018-02-05T07:52:10.637Z,12.80
2018-02-05T07:53:10.623Z,14.30
2018-02-05T07:54:10.553Z,13.70
2018-02-05T07:55:10.506Z,13.30
2018-02-05T07:56:10.472Z,17.20
2018-02-05T07:57:10.420Z,14.90
2018-02-05T07:58:10.375Z,15.30
2018-02-05T07:59:10.372Z,15.60
2018-02-05T08:00:10.296Z,15.10
2018-02-05T08:01:10.245Z,16.60
2018-02-05T08:02:10.251Z,11.90
2018-02-05T08:03:10.158Z,14.70
2018-02-05T08:04:10.145Z,17.90
2018-02-05T08:05:10.074Z,11.30
2018-02-05T08:06:10.026Z,14.10
2018-02-05T08:07:09.984Z,5.70
2018-02-05T08:08:09.940Z,13.10
2018-02-05T08:09:09.898Z,11.70
2018-02-05T08:10:09.850Z,12.90
2018-02-05T08:11:09.815Z,12.30
2018-02-05T08:12:09.763Z,9.60
2018-02-05T08:13:09.719Z,7.80
2018-02-05T08:14:09.676Z,7.00
2018-02-05T08:15:09.634Z,10.90
2018-02-05T08:16:09.602Z,12.10
2018-02-05T08:17:09.563Z,14.40
2018-02-05T08:18:09.501Z,13.10
2018-02-05T08:19:09.468Z,11.80
2018-02-05T08:20:09.423Z,11.90
2018-02-05T08:21:09.392Z,11.70
2018-02-05T08:22:09.330Z,14.40
2018-02-05T08:23:09.295Z,11.00
2018-02-05T08:24:09.256Z,10.20
2018-02-05T08:25:09.202Z,8.30
2018-02-05T08:26:09.160Z,10.60
2018-02-05T08:27:09.122Z,13.70
2018-02-05T08:28:09.076Z,11.60
2018-02-05T08:29:09.032Z,12.40
2018-02-05T08:30:08.989Z,12.00
2018-02-05T08:31:08.944Z,12.00
2018-02-05T08:32:08.935Z,11.00
2018-02-05T08:33:08.857Z,12.30
2018-02-05T08:34:08.818Z,11.50
2018-02-05T08:35:08.768Z,11.60
2018-02-05T08:36:08.720Z,10.20
2018-02-05T08:37:08.677Z,9.50
2018-02-05T08:38:08.637Z,9.30
2018-02-05T08:39:08.588Z,11.40
2018-02-05T08:40:08.569Z,10.70
2018-02-05T08:41:08.519Z,12.20
2018-02-05T08:42:08.515Z,11.50
2018-02-05T08:43:08.415Z,13.20
2018-02-05T08:44:08.383Z,10.60
2018-02-05T08:45:08.342Z,9.90
2018-02-05T08:46:08.303Z,11.60
2018-02-05T08:47:08.245Z,11.70
2018-02-05T08:48:08.210Z,9.50
2018-02-05T08:49:08.159Z,12.50
2018-02-05T08:50:08.121Z,10.20
2018-02-05T08:51:08.080Z,11.50
2018-02-05T08:52:08.035Z,10.60
2018-02-05T08:53:08.005Z,10.20
2018-02-05T08:54:07.973Z,10.40
2018-02-05T08:55:07.910Z,14.00
2018-02-05T08:56:07.861Z,11.90
2018-02-05T08:57:07.833Z,9.20
2018-02-05T08:58:07.791Z,11.20
2018-02-05T08:59:07.725Z,7.20
2018-02-05T09:00:07.679Z,8.70
2018-02-05T09:01:07.637Z,11.80
2018-02-05T09:02:07.600Z,9.80
2018-02-05T09:03:07.546Z,10.80
2018-02-05T09:04:07.511Z,11.00
2018-02-05T09:05:07.461Z,9.90
2018-02-05T09:06:07.448Z,11.00
2018-02-05T09:07:07.374Z,12.50
2018-02-05T09:08:07.348Z,12.70
2018-02-05T09:09:07.295Z,11.60
2018-02-05T09:10:07.254Z,10.40
2018-02-05T09:11:07.210Z,10.90
2018-02-05T09:12:07.160Z,11.40
2018-02-05T09:13:07.178Z,10.30
2018-02-05T09:14:07.069Z,7.90
2018-02-05T09:15:07.030Z,9.00
2018-02-05T09:16:06.982Z,7.30
2018-02-05T09:17:06.945Z,8.50
2018-02-05T09:18:06.894Z,7.70
2018-02-05T09:19:06.852Z,8.90
2018-02-05T09:20:06.808Z,9.40
2018-02-05T09:21:06.765Z,12.20
2018-02-05T09:22:06.720Z,10.90
2018-02-05T09:23:06.679Z,10.10
2018-02-05T09:24:06.633Z,10.20
2018-02-05T09:25:06.590Z,9.70
2018-02-05T09:26:06.555Z,10.30
2018-02-05T09:27:06.502Z,8.70
2018-02-05T09:28:06.459Z,10.90
2018-02-05T09:29:06.415Z,11.70
2018-02-05T09:30:06.373Z,9.90
2018-02-05T09:31:06.327Z,9.90
2018-02-05T09:32:06.286Z,9.40
2018-02-05T09:33:06.241Z,13.50
2018-02-05T09:34:06.196Z,13.20
2018-02-05T09:35:06.157Z,12.30
2018-02-05T09:36:06.111Z,10.20
2018-02-05T09:37:06.085Z,10.40
2018-02-05T09:38:06.026Z,11.30
2018-02-05T09:39:05.990Z,10.80
2018-02-05T09:40:05.943Z,9.50
2018-02-05T09:41:05.896Z,10.10
2018-02-05T09:42:05.854Z,7.40
2018-02-05T09:43:05.805Z,8.30
2018-02-05T09:44:05.766Z,7.60
2018-02-05T09:45:05.733Z,9.10
2018-02-05T09:46:05.833Z,8.10
2018-02-05T09:47:05.638Z,7.80
2018-02-05T09:48:05.593Z,7.90
2018-02-05T09:49:05.564Z,11.10
2018-02-05T09:50:05.504Z,7.80
2018-02-05T09:51:05.486Z,6.80
2018-02-05T09:52:05.435Z,5.90
2018-02-05T09:53:05.382Z,5.10
2018-02-05T09:54:05.332Z,4.70
2018-02-05T09:55:05.286Z,9.10
2018-02-05T09:56:05.255Z,7.90
2018-02-05T09:57:05.202Z,8.60
2018-02-05T09:58:05.209Z,7.00
2018-02-05T09:59:05.119Z,8.10
2018-02-05T10:00:05.073Z,8.30
2018-02-05T10:01:05.088Z,6.20
2018-02-05T10:02:04.985Z,7.50
2018-02-05T10:03:04.944Z,8.40
2018-02-05T10:04:04.917Z,8.10
2018-02-05T10:05:04.858Z,6.20
2018-02-05T10:06:04.812Z,10.40
2018-02-05T10:07:04.768Z,7.50
2018-02-05T10:08:04.735Z,8.20
2018-02-05T10:09:04.707Z,7.70
2018-02-05T10:10:04.637Z,6.60
2018-02-05T10:11:04.596Z,7.00
2018-02-05T10:12:04.552Z,7.30
2018-02-05T10:13:04.510Z,8.60
2018-02-05T10:14:04.468Z,6.30
2018-02-05T10:15:04.432Z,8.50
2018-02-05T10:16:04.406Z,8.40
2018-02-05T10:17:04.338Z,5.60
2018-02-05T10:18:04.305Z,8.20
2018-02-05T10:19:04.257Z,6.90
2018-02-05T10:20:04.214Z,4.50
2018-02-05T10:21:04.168Z,4.90
2018-02-05T10:22:04.124Z,5.30
2018-02-05T10:23:04.091Z,5.10
2018-02-05T10:24:04.038Z,8.00
2018-02-05T10:25:03.993Z,5.00
2018-02-05T10:26:03.961Z,6.50
2018-02-05T10:27:03.930Z,7.20
2018-02-05T10:28:03.887Z,9.30
2018-02-05T10:29:03.822Z,6.30
2018-02-05T10:30:03.778Z,6.60
2018-02-05T10:31:03.734Z,8.40
2018-02-05T10:32:03.704Z,7.20
2018-02-05T10:33:03.653Z,4.30
2018-02-05T10:34:03.607Z,4.20
2018-02-05T10:35:03.605Z,4.80
2018-02-05T10:36:03.525Z,6.50
2018-02-05T10:37:03.479Z,3.70
2018-02-05T10:38:03.435Z,5.40
2018-02-05T10:39:03.405Z,5.70
2018-02-05T10:40:03.350Z,4.60
2018-02-05T10:41:03.306Z,3.20
2018-02-05T10:42:03.272Z,8.60
2018-02-05T10:43:03.228Z,6.40
2018-02-05T10:44:03.182Z,6.40
2018-02-05T10:45:03.160Z,4.90
2018-02-05T10:46:03.094Z,7.00
2018-02-05T10:47:03.064Z,5.00
2018-02-05T10:48:03.006Z,5.20
2018-02-05T10:49:02.967Z,4.70
2018-02-05T10:50:02.918Z,7.00
2018-02-05T10:51:02.887Z,5.10
2018-02-05T10:52:02.849Z,6.90
2018-02-05T10:53:02.803Z,4.90
2018-02-05T10:54:02.809Z,3.80
2018-02-05T10:55:02.719Z,3.40
2018-02-05T10:56:02.682Z,3.20
2018-02-05T10:57:02.635Z,4.40
2018-02-05T10:58:02.589Z,3.60
2018-02-05T10:59:02.543Z,4.80
2018-02-05T11:00:02.496Z,4.80
2018-02-05T11:01:02.447Z,5.90
2018-02-05T11:02:02.413Z,3.20
2018-02-05T11:03:02.370Z,3.30
2018-02-05T11:04:02.331Z,5.90
2018-02-05T11:05:02.274Z,3.30
2018-02-05T11:06:02.249Z,5.90
2018-02-05T11:07:02.193Z,4.20
2018-02-05T11:08:02.164Z,5.40
2018-02-05T11:09:02.104Z,5.80
2018-02-05T11:10:02.087Z,6.80
2018-02-05T11:11:02.015Z,6.10
2018-02-05T11:12:01.968Z,3.70
2018-02-05T11:13:01.941Z,4.80
2018-02-05T11:14:01.897Z,6.10
2018-02-05T11:15:01.858Z,7.10
2018-02-05T11:16:01.826Z,4.60
2018-02-05T11:17:01.762Z,4.10
2018-02-05T11:18:01.717Z,4.60
2018-02-05T11:19:01.672Z,3.70
2018-02-05T11:20:03.406Z,3.40
2018-02-05T11:21:01.591Z,5.20
2018-02-05T11:22:01.543Z,6.20
2018-02-05T11:23:01.502Z,5.00
2018-02-05T11:24:01.456Z,4.80
2018-02-05T11:25:01.420Z,5.80
2018-02-05T11:26:01.367Z,1.50
2018-02-05T11:27:01.336Z,3.90
2018-02-05T11:28:01.288Z,4.70
2018-02-05T11:29:01.243Z,5.60
2018-02-05T11:30:01.202Z,6.60
2018-02-05T11:31:01.156Z,5.50
2018-02-05T11:32:01.111Z,7.30
2018-02-05T11:33:01.070Z,4.70
2018-02-05T11:34:01.043Z,5.50
2018-02-05T11:35:00.985Z,4.80
2018-02-05T11:36:00.946Z,4.00
2018-02-05T11:37:00.898Z,4.90
2018-02-05T11:38:00.858Z,5.30
2018-02-05T11:39:00.814Z,5.30
2018-02-05T11:40:00.774Z,3.70
2018-02-05T11:41:00.729Z,5.30
2018-02-05T11:42:00.693Z,5.20
2018-02-05T11:43:00.639Z,7.50
2018-02-05T11:44:00.604Z,3.60
2018-02-05T11:45:00.562Z,5.20
2018-02-05T11:46:00.511Z,4.30
2018-02-05T11:47:00.472Z,3.80
2018-02-05T11:48:00.426Z,3.90
2018-02-05T11:49:00.386Z,5.00
2018-02-05T11:50:00.340Z,6.40
2018-02-05T11:51:00.312Z,6.60
2018-02-05T11:52:00.275Z,5.40
2018-02-05T11:53:00.213Z,5.90
2018-02-05T11:54:00.174Z,7.60
2018-02-05T11:55:00.133Z,4.10
2018-02-05T11:56:00.095Z,3.50
2018-02-05T11:57:00.044Z,3.30
2018-02-05T11:58:00.010Z,3.80
2018-02-05T11:58:59.957Z,3.80
2018-02-05T11:59:59.912Z,3.80
2018-02-05T12:00:59.871Z,4.30
2018-02-05T12:01:59.829Z,3.20
2018-02-05T12:02:59.786Z,3.40
2018-02-05T12:03:59.742Z,8.40
2018-02-05T12:04:59.701Z,4.60
2018-02-05T12:05:59.673Z,5.60
2018-02-05T12:06:59.626Z,4.70
2018-02-05T12:07:59.583Z,5.80
2018-02-05T12:08:59.533Z,3.00
2018-02-05T12:09:59.512Z,4.60
2018-02-05T12:10:59.444Z,4.30
2018-02-05T12:11:59.402Z,6.30
2018-02-05T12:12:59.357Z,4.20
2018-02-05T12:13:59.319Z,3.40
2018-02-05T12:14:59.282Z,4.70
2018-02-05T12:15:59.230Z,4.50
2018-02-05T12:16:59.187Z,4.00
2018-02-05T12:17:59.163Z,2.50
2018-02-05T12:18:59.134Z,3.00
2018-02-05T12:19:59.060Z,3.00
2018-02-05T12:20:59.029Z,3.60
2018-02-05T12:21:58.990Z,7.70
2018-02-05T12:22:58.942Z,3.40
2018-02-05T12:23:58.894Z,3.70
2018-02-05T12:24:58.854Z,5.00
2018-02-05T12:25:58.811Z,2.70
2018-02-05T12:26:58.760Z,3.90
2018-02-05T12:27:58.718Z,3.50
2018-02-05T12:28:58.675Z,2.40
2018-02-05T12:29:58.641Z,3.50
2018-02-05T12:30:58.587Z,8.50
2018-02-05T12:31:58.557Z,9.70
2018-02-05T12:32:58.502Z,4.70
2018-02-05T12:33:58.459Z,2.20
2018-02-05T12:34:58.438Z,4.50
2018-02-05T12:35:58.387Z,3.40
2018-02-05T12:36:58.340Z,3.20
2018-02-05T12:37:58.292Z,6.90
2018-02-05T12:38:58.247Z,6.60
2018-02-05T12:39:58.205Z,6.70
2018-02-05T12:40:58.167Z,5.00
2018-02-05T12:41:58.117Z,3.50
2018-02-05T12:42:58.074Z,7.30
2018-02-05T12:43:58.040Z,4.90
2018-02-05T12:44:57.987Z,2.50
2018-02-05T12:45:57.947Z,4.90
2018-02-05T12:46:57.901Z,6.40
2018-02-05T12:47:57.861Z,3.20
2018-02-05T12:48:57.817Z,5.30
2018-02-05T12:49:57.774Z,1.80
2018-02-05T12:50:57.732Z,5.20
2018-02-05T12:51:57.689Z,2.70
2018-02-05T12:52:57.646Z,8.40
2018-02-05T12:53:57.608Z,5.10
2018-02-05T12:54:57.572Z,2.80
2018-02-05T12:55:57.515Z,3.60
2018-02-05T12:56:57.485Z,4.40
2018-02-05T12:57:57.432Z,6.00
2018-02-05T12:58:57.386Z,5.00